Terminal Aerodrome Forecast
Issued by NWS Tuscon, AZ

Home | Current Version | Previous Version | Text Only | Print | Product List | Glossary On
Versions: 1 2 3 4 5 6 7 8 9 10 11 12
000
FTUS45 KTWC 071137
TAFTUS
TAF
KTUS 071137Z 0712/0812 10008KT P6SM SCT130 BKN200
     FM071800 16005KT P6SM FEW130 BKN200
     FM072100 32007KT P6SM FEW130 BKN200
     FM080200 23004KT P6SM BKN250
     FM080800 14006KT P6SM SCT250=

USA.gov is the U.S. government's official web portal to all federal, state and local government web resources and services.